Airfield :
LOGIN :

Register | Disclaimer

   EN    FR    IT 

 










Legend :    VFR   Marginal VFR   IFR   Intensive IFR   Very Intensive IFR
Visi :
Ceiling :
>= 8 km
>= 3000ft
5 to 8 km
1000 to 3000 ft
1500m to 5 km
500 to 1000 ft
800 to 1500m
200 to 500 ft
< 800m
< 200 ft
Symbols :   Thunderstorms  Fog  Heavy snow  Heavy precipitations  Wind > 20 kt
SIGMETs :     Misc.  Thunderstorms  Icing  Turbulence  Mountain Waves  Volcanic Ashes






- Airport Elevation : 146 ft
- IATA code : RKE


EKRK - Roskilde Tune

CURRENT METAR :
  • 021920Z AUTO 27020KT 9999 OVC061/// 05/M00 Q0997

EXPIRED METARs :
  • 021850Z AUTO 27021KT 9999 OVC032/// 06/01 Q0997
  • 021820Z AUTO 27017KT 9999 FEW022/// OVC050/// 06/03 Q0997
  • 021750Z AUTO 27019G29KT 9999 FEW013/// OVC048/// 06/03 Q0997
  • 021720Z AUTO 25020G31KT 8000 DZ OVC019/// 07/04 Q0996
  • 021650Z AUTO 25022G33KT 9999 BKN021/// 07/03 Q0996

TAF TAF EKRK
Valid from the 02 at 18:00 until the 03 at 03:00 UTC


021723Z 0218/0303 26022KT 9999 BKN020
TEMPO 0218/0219 27022G35KT 4000 SHRA BKN012CB
TEMPO 0219/0303 27020G32KT FEW020CB



MET'MAP, your aeronautical weather chart ! - Copyright ORBIFLY December 2007 - Disclaimer

ORBIFLY MET'MAP TEAM :

Programming & Development : Alexandra Zaïnal
Concept & original design : Baudouin d'Aumeries
Assistance for programming : Marc-Olivier Méhu
Technical & hardware support : Manuel Goepfert

Contact : metmap@orbifly.com




SOURCES & CREDITS :

   NOAA